createdAt,value
2023-11-11T00:02:21.469Z,96608.00
2023-11-11T00:04:48.157Z,96605.00
2023-11-11T00:07:16.652Z,96613.00
2023-11-11T00:09:43.212Z,96618.00
2023-11-11T00:12:09.821Z,96616.00
2023-11-11T00:14:36.411Z,96614.00
2023-11-11T00:17:03.084Z,96622.00
2023-11-11T00:19:30.749Z,96635.00
2023-11-11T00:21:57.358Z,96645.00
2023-11-11T00:24:23.979Z,96639.00
2023-11-11T00:26:50.681Z,96646.00
2023-11-11T00:29:17.950Z,96664.00
2023-11-11T00:31:48.470Z,96658.00
2023-11-11T00:34:17.173Z,96680.00
2023-11-11T00:36:43.939Z,96685.00
2023-11-11T00:39:14.077Z,96708.00
2023-11-11T00:41:44.388Z,96708.00
2023-11-11T00:44:11.552Z,96765.00
2023-11-11T00:46:38.955Z,96787.00
2023-11-11T00:49:07.209Z,96810.00
2023-11-11T00:51:40.525Z,96814.00
2023-11-11T00:54:11.419Z,96826.00
2023-11-11T00:56:39.273Z,96845.00
2023-11-11T00:59:06.387Z,96847.00
2023-11-11T01:01:36.448Z,96871.00
2023-11-11T01:04:05.917Z,96879.00
2023-11-11T01:06:33.301Z,96900.00
2023-11-11T01:08:59.900Z,96897.00
2023-11-11T01:11:26.710Z,96907.00
2023-11-11T01:13:53.258Z,96920.00
2023-11-11T01:16:20.166Z,96916.00
2023-11-11T01:18:46.875Z,96926.00
2023-11-11T01:21:13.782Z,96932.00
2023-11-11T01:23:42.662Z,96927.00
2023-11-11T01:26:11.174Z,96935.00
2023-11-11T01:28:38.088Z,96943.00
2023-11-11T01:31:04.793Z,96945.00
2023-11-11T01:33:31.746Z,96955.00
2023-11-11T01:36:02.268Z,96961.00
2023-11-11T01:38:29.124Z,96960.00
2023-11-11T01:40:55.896Z,96969.00
2023-11-11T01:43:25.167Z,96985.00
2023-11-11T01:45:55.416Z,96984.00
2023-11-11T01:48:22.124Z,96977.00
2023-11-11T01:50:48.988Z,96973.00
2023-11-11T01:53:18.032Z,96987.00
2023-11-11T01:55:44.954Z,96996.00
2023-11-11T01:58:11.814Z,96992.00
2023-11-11T02:00:42.245Z,96984.00
2023-11-11T02:03:09.498Z,97000.00
2023-11-11T02:05:36.359Z,96998.00
2023-11-11T02:08:06.693Z,97007.00
2023-11-11T02:10:37.249Z,97005.00
2023-11-11T02:13:04.054Z,97001.00
2023-11-11T02:15:30.820Z,97007.00
2023-11-11T02:18:02.006Z,97015.00
2023-11-11T02:20:30.603Z,97014.00
2023-11-11T02:22:57.210Z,97012.00
2023-11-11T02:25:23.796Z,97010.00
2023-11-11T02:27:50.477Z,97009.00
2023-11-11T02:30:17.091Z,97014.00
2023-11-11T02:32:44.043Z,97011.00
2023-11-11T02:35:10.846Z,97023.00
2023-11-11T02:37:37.724Z,97024.00
2023-11-11T02:40:04.963Z,97027.00
2023-11-11T02:42:31.600Z,97034.00
2023-11-11T02:44:58.166Z,97042.00
2023-11-11T02:47:24.916Z,97041.00
2023-11-11T02:49:52.015Z,97044.00
2023-11-11T02:52:18.546Z,97060.00
2023-11-11T02:54:45.220Z,97053.00
2023-11-11T02:57:11.977Z,97063.00
2023-11-11T02:59:41.091Z,97065.00
2023-11-11T03:02:08.354Z,97067.00
2023-11-11T03:04:38.203Z,97078.00
2023-11-11T03:07:04.944Z,97088.00
2023-11-11T03:09:34.726Z,97083.00
2023-11-11T03:12:02.532Z,97084.00
2023-11-11T03:14:29.235Z,97094.00
2023-11-11T03:16:55.898Z,97089.00
2023-11-11T03:19:23.093Z,97100.00
2023-11-11T03:21:49.890Z,97109.00
2023-11-11T03:24:16.575Z,97118.00
2023-11-11T03:26:43.122Z,97127.00
2023-11-11T03:29:10.327Z,97135.00
2023-11-11T03:31:36.974Z,97134.00
2023-11-11T03:34:03.577Z,97142.00
2023-11-11T03:36:30.125Z,97143.00
2023-11-11T03:38:56.766Z,97149.00
2023-11-11T03:41:23.270Z,97160.00
2023-11-11T03:43:49.801Z,97158.00
2023-11-11T03:46:16.355Z,97161.00
2023-11-11T03:48:43.689Z,97161.00
2023-11-11T03:51:10.346Z,97163.00
2023-11-11T03:53:36.893Z,97173.00
2023-11-11T03:56:08.515Z,97184.00
2023-11-11T03:58:37.155Z,97176.00
2023-11-11T04:01:09.224Z,97178.00
2023-11-11T04:03:39.853Z,97192.00
2023-11-11T04:06:08.035Z,97192.00
2023-11-11T04:08:35.448Z,97185.00
2023-11-11T04:11:08.549Z,97192.00
2023-11-11T04:13:38.390Z,97195.00
2023-11-11T04:16:05.462Z,97199.00
2023-11-11T04:18:34.341Z,97208.00
2023-11-11T04:21:01.736Z,97207.00
2023-11-11T04:23:29.512Z,97212.00
2023-11-11T04:25:57.671Z,97218.00
2023-11-11T04:28:27.906Z,97224.00
2023-11-11T04:30:54.453Z,97235.00
2023-11-11T04:33:21.627Z,97247.00
2023-11-11T04:35:48.294Z,97242.00
2023-11-11T04:38:14.815Z,97254.00
2023-11-11T04:40:41.426Z,97256.00
2023-11-11T04:43:08.909Z,97260.00
2023-11-11T04:45:35.500Z,97260.00
2023-11-11T04:48:03.128Z,97275.00
2023-11-11T04:50:30.035Z,97266.00
2023-11-11T04:52:56.603Z,97282.00
2023-11-11T04:55:23.167Z,97281.00
2023-11-11T04:57:49.806Z,97282.00
2023-11-11T05:00:17.085Z,97292.00
2023-11-11T05:02:45.257Z,97295.00
2023-11-11T05:05:12.569Z,97298.00
2023-11-11T05:07:43.267Z,97293.00
2023-11-11T05:10:10.747Z,97292.00
2023-11-11T05:12:38.623Z,97298.00
2023-11-11T05:15:26.201Z,97304.00
2023-11-11T05:17:53.427Z,97306.00
2023-11-11T05:20:20.073Z,97312.00
2023-11-11T05:22:46.714Z,97316.00
2023-11-11T05:25:13.450Z,97328.00
2023-11-11T05:27:42.838Z,97331.00
2023-11-11T05:30:09.887Z,97334.00
2023-11-11T05:32:36.758Z,97336.00
2023-11-11T05:35:03.997Z,97340.00
2023-11-11T05:37:30.994Z,97353.00
2023-11-11T05:39:57.590Z,97356.00
2023-11-11T05:42:24.173Z,97354.00
2023-11-11T05:44:50.680Z,97351.00
2023-11-11T05:47:17.214Z,97360.00
2023-11-11T05:49:47.433Z,97362.00
2023-11-11T05:52:14.193Z,97373.00
2023-11-11T05:54:40.763Z,97375.00
2023-11-11T05:57:07.413Z,97373.00
2023-11-11T05:59:33.999Z,97376.00
2023-11-11T06:02:04.309Z,97376.00
2023-11-11T06:04:34.115Z,97381.00
2023-11-11T06:07:02.464Z,97390.00
2023-11-11T06:09:29.103Z,97384.00
2023-11-11T06:11:56.592Z,97397.00
2023-11-11T06:14:24.118Z,97399.00
2023-11-11T06:16:50.699Z,97398.00
2023-11-11T06:19:17.415Z,97405.00
2023-11-11T06:21:44.065Z,97406.00
2023-11-11T06:24:11.885Z,97407.00
2023-11-11T06:26:38.651Z,97404.00
2023-11-11T06:29:07.636Z,97407.00
2023-11-11T06:31:34.388Z,97414.00
2023-11-11T06:34:01.798Z,97409.00
2023-11-11T06:36:29.248Z,97424.00
2023-11-11T06:38:56.079Z,97426.00
2023-11-11T06:41:23.854Z,97428.00
2023-11-11T06:43:50.454Z,97439.00
2023-11-11T06:46:17.082Z,97437.00
2023-11-11T06:48:43.703Z,97449.00
2023-11-11T06:51:10.810Z,97453.00
2023-11-11T06:53:39.300Z,97457.00
2023-11-11T06:56:06.940Z,97451.00
2023-11-11T06:58:33.583Z,97460.00
2023-11-11T07:01:00.613Z,97469.00
2023-11-11T07:03:29.682Z,97473.00
2023-11-11T07:05:57.339Z,97470.00
2023-11-11T07:08:23.935Z,97468.00
2023-11-11T07:10:50.531Z,97477.00
2023-11-11T07:13:17.545Z,97477.00
2023-11-11T07:15:44.159Z,97484.00
2023-11-11T07:18:11.328Z,97489.00
2023-11-11T07:20:37.892Z,97481.00
2023-11-11T07:23:05.729Z,97492.00
2023-11-11T07:25:34.574Z,97501.00
2023-11-11T07:28:01.259Z,97502.00
2023-11-11T07:30:27.904Z,97498.00
2023-11-11T07:33:00.065Z,97511.00
2023-11-11T07:35:28.877Z,97505.00
2023-11-11T07:37:56.163Z,97518.00
2023-11-11T07:40:26.726Z,97525.00
2023-11-11T07:42:54.262Z,97519.00
2023-11-11T07:45:24.635Z,97514.00
2023-11-11T07:47:52.758Z,97517.00
2023-11-11T07:50:20.603Z,97522.00
2023-11-11T07:52:47.481Z,97527.00
2023-11-11T07:55:14.068Z,97520.00
2023-11-11T08:00:16.914Z,97533.00
2023-11-11T08:02:43.931Z,97538.00
2023-11-11T08:05:11.558Z,97544.00
2023-11-11T08:07:38.989Z,97532.00
2023-11-11T08:10:07.363Z,97539.00
2023-11-11T08:12:34.175Z,97543.00
2023-11-11T08:15:01.719Z,97544.00
2023-11-11T08:17:28.507Z,97555.00
2023-11-11T08:19:55.106Z,97556.00
2023-11-11T08:22:21.798Z,97557.00
2023-11-11T08:24:48.375Z,97552.00
2023-11-11T08:27:15.020Z,97567.00
2023-11-11T08:29:41.592Z,97572.00
2023-11-11T08:32:08.995Z,97574.00
2023-11-11T08:34:35.539Z,97578.00
2023-11-11T08:37:05.421Z,97580.00
2023-11-11T08:39:32.125Z,97574.00
2023-11-11T08:41:59.491Z,97579.00
2023-11-11T08:44:25.999Z,97585.00
2023-11-11T08:46:52.622Z,97574.00
2023-11-11T08:49:19.422Z,97586.00
2023-11-11T08:51:46.193Z,97581.00
2023-11-11T08:54:12.759Z,97593.00
2023-11-11T08:56:39.297Z,97593.00
2023-11-11T08:59:06.456Z,97600.00
2023-11-11T09:01:34.613Z,97600.00
2023-11-11T09:04:01.832Z,97606.00
2023-11-11T09:06:29.000Z,97597.00
2023-11-11T09:08:55.758Z,97602.00
2023-11-11T09:11:22.464Z,97600.00
2023-11-11T09:13:49.072Z,97595.00
2023-11-11T09:16:16.648Z,97600.00
2023-11-11T09:18:43.671Z,97603.00
2023-11-11T09:21:10.437Z,97612.00
2023-11-11T09:23:37.701Z,97618.00
2023-11-11T09:26:06.613Z,97605.00
2023-11-11T09:28:35.766Z,97611.00
2023-11-11T09:31:02.518Z,97613.00
2023-11-11T09:33:29.840Z,97624.00
2023-11-11T09:35:56.632Z,97610.00
2023-11-11T09:38:24.788Z,97606.00
2023-11-11T09:40:51.453Z,97611.00
2023-11-11T09:43:19.323Z,97615.00
2023-11-11T09:45:46.235Z,97616.00
2023-11-11T09:48:13.526Z,97614.00
2023-11-11T09:50:40.716Z,97619.00
2023-11-11T09:53:07.303Z,97615.00
2023-11-11T09:55:34.669Z,97626.00
2023-11-11T09:58:02.459Z,97624.00
2023-11-11T10:00:31.920Z,97642.00
2023-11-11T10:02:59.795Z,97628.00
2023-11-11T10:05:26.431Z,97638.00
2023-11-11T10:07:56.177Z,97637.00
2023-11-11T10:10:23.028Z,97648.00
2023-11-11T10:12:49.595Z,97640.00
2023-11-11T10:15:16.288Z,97642.00
2023-11-11T10:17:42.957Z,97642.00
2023-11-11T10:20:17.347Z,97647.00
2023-11-11T10:22:48.864Z,97642.00
2023-11-11T10:25:19.122Z,97652.00
2023-11-11T10:27:49.777Z,97659.00
2023-11-11T10:30:21.872Z,97655.00
2023-11-11T10:32:49.934Z,97641.00
2023-11-11T10:35:18.270Z,97645.00
2023-11-11T10:37:47.013Z,97648.00
2023-11-11T10:40:17.177Z,97649.00
2023-11-11T10:42:46.113Z,97642.00
2023-11-11T10:45:14.138Z,97647.00
2023-11-11T10:47:40.764Z,97633.00
2023-11-11T10:50:08.355Z,97635.00
2023-11-11T10:52:36.404Z,97630.00
2023-11-11T10:55:06.758Z,97633.00
2023-11-11T10:57:33.796Z,97633.00
2023-11-11T11:00:00.971Z,97634.00
2023-11-11T11:02:28.506Z,97631.00
2023-11-11T11:05:01.020Z,97629.00
2023-11-11T11:07:33.283Z,97628.00
2023-11-11T11:10:09.095Z,97622.00
2023-11-11T11:12:56.982Z,97635.00
2023-11-11T11:15:23.671Z,97641.00
2023-11-11T11:17:52.947Z,97633.00
2023-11-11T11:20:25.940Z,97623.00
2023-11-11T11:23:00.538Z,97623.00
2023-11-11T11:25:45.408Z,97621.00
2023-11-11T11:28:12.319Z,97619.00
2023-11-11T11:30:57.412Z,97607.00
2023-11-11T11:33:34.386Z,97605.00
2023-11-11T11:36:05.579Z,97602.00
2023-11-11T11:38:35.321Z,97603.00
2023-11-11T11:41:13.821Z,97610.00
2023-11-11T11:43:42.653Z,97604.00
2023-11-11T11:46:09.891Z,97611.00
2023-11-11T11:48:38.751Z,97599.00
2023-11-11T11:51:09.935Z,97598.00
2023-11-11T11:53:47.421Z,97612.00
2023-11-11T11:56:33.647Z,97616.00
2023-11-11T11:59:03.936Z,97620.00
2023-11-11T12:01:33.418Z,97609.00
2023-11-11T12:04:00.914Z,97619.00
2023-11-11T12:06:28.598Z,97619.00
2023-11-11T12:08:57.047Z,97617.00
2023-11-11T12:11:28.256Z,97626.00
2023-11-11T12:13:56.028Z,97616.00
2023-11-11T12:16:39.795Z,97634.00
2023-11-11T12:19:14.537Z,97627.00
2023-11-11T12:21:45.792Z,97634.00
2023-11-11T12:24:14.005Z,97635.00
2023-11-11T12:26:42.429Z,97640.00
2023-11-11T12:29:09.760Z,97635.00
2023-11-11T12:31:49.259Z,97643.00
2023-11-11T12:34:18.199Z,97644.00
2023-11-11T12:36:47.011Z,97634.00
2023-11-11T12:39:15.203Z,97640.00
2023-11-11T12:41:47.039Z,97646.00
2023-11-11T12:44:14.284Z,97634.00
2023-11-11T12:46:44.945Z,97634.00
2023-11-11T12:49:13.762Z,97631.00
2023-11-11T12:51:41.473Z,97648.00
2023-11-11T12:54:08.090Z,97640.00
2023-11-11T12:56:34.760Z,97642.00
2023-11-11T12:59:14.284Z,97647.00
2023-11-11T13:01:41.626Z,97644.00
2023-11-11T13:04:10.874Z,97649.00
2023-11-11T13:06:37.503Z,97657.00
2023-11-11T13:09:09.804Z,97649.00
2023-11-11T13:11:36.869Z,97650.00
2023-11-11T13:14:07.331Z,97643.00
2023-11-11T13:16:34.086Z,97651.00
2023-11-11T13:19:03.044Z,97647.00
2023-11-11T13:21:31.192Z,97654.00
2023-11-11T13:23:59.264Z,97644.00
2023-11-11T13:26:27.464Z,97637.00
2023-11-11T13:28:55.625Z,97656.00
2023-11-11T13:31:25.838Z,97650.00
2023-11-11T13:33:53.589Z,97648.00
2023-11-11T13:36:35.673Z,97655.00
2023-11-11T13:39:02.478Z,97656.00
2023-11-11T13:41:34.898Z,97650.00
2023-11-11T13:44:01.774Z,97642.00
2023-11-11T13:46:31.265Z,97641.00
2023-11-11T13:48:59.341Z,97640.00
2023-11-11T13:51:26.513Z,97648.00
2023-11-11T13:53:56.931Z,97653.00
2023-11-11T13:56:24.439Z,97657.00
2023-11-11T13:58:53.444Z,97654.00
2023-11-11T14:01:20.037Z,97654.00
2023-11-11T14:03:46.683Z,97658.00
2023-11-11T14:06:13.543Z,97664.00
2023-11-11T14:08:40.272Z,97658.00
2023-11-11T14:11:08.178Z,97664.00
2023-11-11T14:13:36.027Z,97666.00
2023-11-11T14:16:03.194Z,97672.00
2023-11-11T14:18:30.810Z,97666.00
2023-11-11T14:21:00.771Z,97678.00
2023-11-11T14:23:28.658Z,97671.00
2023-11-11T14:25:58.569Z,97675.00
2023-11-11T14:28:25.549Z,97675.00
2023-11-11T14:30:52.305Z,97685.00
2023-11-11T14:33:19.586Z,97697.00
2023-11-11T14:35:46.988Z,97691.00
2023-11-11T14:38:15.128Z,97688.00
2023-11-11T14:40:48.429Z,97690.00
2023-11-11T14:43:15.134Z,97690.00
2023-11-11T14:45:45.251Z,97692.00
2023-11-11T14:48:11.966Z,97683.00
2023-11-11T14:50:38.661Z,97693.00
2023-11-11T14:53:05.661Z,97690.00
2023-11-11T14:55:32.804Z,97692.00
2023-11-11T14:57:59.892Z,97687.00
2023-11-11T15:00:28.333Z,97703.00
2023-11-11T15:02:57.013Z,97700.00
2023-11-11T15:05:24.600Z,97707.00
2023-11-11T15:07:52.029Z,97714.00
2023-11-11T15:10:19.896Z,97709.00
2023-11-11T15:12:47.277Z,97710.00
2023-11-11T15:15:13.878Z,97707.00
2023-11-11T15:17:40.724Z,97707.00
2023-11-11T15:20:08.642Z,97712.00
2023-11-11T15:22:36.023Z,97706.00
2023-11-11T15:25:02.646Z,97709.00
2023-11-11T15:27:29.221Z,97714.00
2023-11-11T15:29:58.879Z,97728.00
2023-11-11T15:32:25.701Z,97720.00
2023-11-11T15:34:53.073Z,97723.00
2023-11-11T15:37:19.654Z,97722.00
2023-11-11T15:39:46.564Z,97716.00
2023-11-11T15:42:13.192Z,97713.00
2023-11-11T15:44:40.266Z,97718.00
2023-11-11T15:47:06.955Z,97719.00
2023-11-11T15:49:33.717Z,97712.00
2023-11-11T15:52:00.424Z,97713.00
2023-11-11T15:54:27.253Z,97723.00
2023-11-11T15:56:55.185Z,97721.00
2023-11-11T15:59:21.770Z,97719.00
2023-11-11T16:01:48.303Z,97727.00
2023-11-11T16:04:14.900Z,97727.00
2023-11-11T16:06:41.544Z,97722.00
2023-11-11T16:09:16.916Z,97735.00
2023-11-11T16:11:44.933Z,97729.00
2023-11-11T16:14:14.507Z,97734.00
2023-11-11T16:16:41.251Z,97734.00
2023-11-11T16:19:08.319Z,97732.00
2023-11-11T16:21:35.574Z,97733.00
2023-11-11T16:24:16.611Z,97732.00
2023-11-11T16:26:51.473Z,97733.00
2023-11-11T16:29:18.467Z,97737.00
2023-11-11T16:31:45.013Z,97733.00
2023-11-11T16:34:11.638Z,97740.00
2023-11-11T16:36:38.161Z,97740.00
2023-11-11T16:39:04.935Z,97746.00
2023-11-11T16:41:31.429Z,97760.00
2023-11-11T16:43:58.334Z,97757.00
2023-11-11T16:46:25.998Z,97758.00
2023-11-11T16:48:52.643Z,97760.00
2023-11-11T16:51:20.566Z,97765.00
2023-11-11T16:53:47.476Z,97765.00
2023-11-11T16:56:15.212Z,97750.00
2023-11-11T16:58:41.760Z,97749.00
2023-11-11T17:01:08.360Z,97752.00
2023-11-11T17:03:38.490Z,97760.00
2023-11-11T17:06:09.926Z,97769.00
2023-11-11T17:08:37.792Z,97766.00
2023-11-11T17:11:06.138Z,97765.00
2023-11-11T17:13:33.194Z,97760.00
2023-11-11T17:15:59.817Z,97755.00
2023-11-11T17:18:26.394Z,97771.00
2023-11-11T17:20:52.928Z,97762.00
2023-11-11T17:23:20.008Z,97770.00
2023-11-11T17:25:47.253Z,97777.00
2023-11-11T17:28:13.840Z,97769.00
2023-11-11T17:30:42.603Z,97758.00
2023-11-11T17:33:25.415Z,97771.00
2023-11-11T17:35:56.881Z,97759.00
2023-11-11T17:38:23.416Z,97755.00
2023-11-11T17:40:49.960Z,97761.00
2023-11-11T17:43:16.498Z,97759.00
2023-11-11T17:45:43.171Z,97753.00
2023-11-11T17:48:09.904Z,97758.00
2023-11-11T17:50:36.470Z,97752.00
2023-11-11T17:53:16.101Z,97755.00
2023-11-11T17:55:45.379Z,97756.00
2023-11-11T17:58:12.211Z,97768.00
2023-11-11T18:00:38.789Z,97753.00
2023-11-11T18:03:05.466Z,97757.00
2023-11-11T18:05:35.327Z,97758.00
2023-11-11T18:08:03.091Z,97758.00
2023-11-11T18:10:30.238Z,97755.00
2023-11-11T18:12:57.567Z,97755.00
2023-11-11T18:15:26.004Z,97755.00
2023-11-11T18:17:53.004Z,97749.00
2023-11-11T18:20:20.070Z,97759.00
2023-11-11T18:22:47.231Z,97759.00
2023-11-11T18:25:14.059Z,97759.00
2023-11-11T18:27:40.735Z,97761.00
2023-11-11T18:30:08.273Z,97761.00
2023-11-11T18:32:34.976Z,97767.00
2023-11-11T18:35:02.071Z,97768.00
2023-11-11T18:37:28.748Z,97754.00
2023-11-11T18:39:55.233Z,97776.00
2023-11-11T18:42:21.830Z,97781.00
2023-11-11T18:44:48.431Z,97775.00
2023-11-11T18:47:15.073Z,97780.00
2023-11-11T18:49:41.708Z,97787.00
2023-11-11T18:52:08.309Z,97789.00
2023-11-11T18:54:37.235Z,97779.00
2023-11-11T18:57:04.319Z,97790.00
2023-11-11T18:59:31.076Z,97789.00
2023-11-11T19:01:57.957Z,97789.00
2023-11-11T19:04:25.794Z,97785.00
2023-11-11T19:06:52.644Z,97788.00
2023-11-11T19:09:19.314Z,97788.00
2023-11-11T19:11:46.092Z,97790.00
2023-11-11T19:14:13.726Z,97787.00
2023-11-11T19:16:42.116Z,97789.00
2023-11-11T19:19:11.792Z,97789.00
2023-11-11T19:21:38.929Z,97791.00
2023-11-11T19:24:10.292Z,97791.00
2023-11-11T19:26:37.273Z,97795.00
2023-11-11T19:29:04.501Z,97790.00
2023-11-11T19:31:31.688Z,97791.00
2023-11-11T19:33:58.468Z,97793.00
2023-11-11T19:36:25.142Z,97785.00
2023-11-11T19:38:51.738Z,97786.00
2023-11-11T19:41:18.436Z,97794.00
2023-11-11T19:43:47.264Z,97791.00
2023-11-11T19:46:17.658Z,97796.00
2023-11-11T19:48:45.749Z,97806.00
2023-11-11T19:51:24.520Z,97812.00
2023-11-11T19:53:53.628Z,97809.00
2023-11-11T19:56:21.152Z,97811.00
2023-11-11T19:58:48.998Z,97807.00
2023-11-11T20:01:16.038Z,97809.00
2023-11-11T20:03:42.916Z,97805.00
2023-11-11T20:06:09.985Z,97809.00
2023-11-11T20:08:36.655Z,97812.00
2023-11-11T20:11:03.552Z,97810.00
2023-11-11T20:13:30.178Z,97811.00
2023-11-11T20:15:57.240Z,97808.00
2023-11-11T20:18:23.896Z,97810.00
2023-11-11T20:20:50.578Z,97808.00
2023-11-11T20:23:17.202Z,97806.00
2023-11-11T20:25:43.959Z,97796.00
2023-11-11T20:28:10.526Z,97793.00
2023-11-11T20:30:39.319Z,97790.00
2023-11-11T20:33:10.716Z,97786.00
2023-11-11T20:35:37.748Z,97782.00
2023-11-11T20:38:04.972Z,97783.00
2023-11-11T20:40:31.928Z,97784.00
2023-11-11T20:42:58.622Z,97791.00
2023-11-11T20:45:25.315Z,97780.00
2023-11-11T20:47:52.425Z,97780.00
2023-11-11T20:50:20.021Z,97784.00
2023-11-11T20:52:49.204Z,97783.00
2023-11-11T20:55:18.542Z,97777.00
2023-11-11T20:57:45.461Z,97777.00
2023-11-11T21:00:13.386Z,97781.00
2023-11-11T21:02:43.353Z,97773.00
2023-11-11T21:05:16.951Z,97775.00
2023-11-11T21:07:46.565Z,97779.00
2023-11-11T21:10:17.855Z,97774.00
2023-11-11T21:12:47.011Z,97775.00
2023-11-11T21:15:13.615Z,97777.00
2023-11-11T21:17:40.229Z,97778.00
2023-11-11T21:20:10.173Z,97777.00
2023-11-11T21:22:38.139Z,97780.00
2023-11-11T21:25:08.181Z,97769.00
2023-11-11T21:27:34.786Z,97778.00
2023-11-11T21:30:01.332Z,97771.00
2023-11-11T21:32:28.176Z,97761.00
2023-11-11T21:34:54.971Z,97769.00
2023-11-11T21:37:21.587Z,97757.00
2023-11-11T21:39:48.779Z,97757.00
2023-11-11T21:42:15.513Z,97757.00
2023-11-11T21:44:42.185Z,97748.00
2023-11-11T21:47:09.484Z,97756.00
2023-11-11T21:49:36.570Z,97753.00
2023-11-11T21:52:03.300Z,97739.00
2023-11-11T21:54:29.841Z,97754.00
2023-11-11T21:56:56.419Z,97754.00
2023-11-11T21:59:23.126Z,97743.00
2023-11-11T22:01:49.827Z,97747.00
2023-11-11T22:04:16.585Z,97739.00
2023-11-11T22:06:43.090Z,97738.00
2023-11-11T22:09:09.926Z,97726.00
2023-11-11T22:11:38.963Z,97734.00
2023-11-11T22:14:06.622Z,97724.00
2023-11-11T22:16:33.424Z,97728.00
2023-11-11T22:19:00.132Z,97719.00
2023-11-11T22:21:26.638Z,97719.00
2023-11-11T22:23:54.605Z,97714.00
2023-11-11T22:26:21.380Z,97724.00
2023-11-11T22:28:48.170Z,97721.00
2023-11-11T22:31:14.945Z,97719.00
2023-11-11T22:33:41.566Z,97722.00
2023-11-11T22:36:11.433Z,97720.00
2023-11-11T22:38:39.585Z,97718.00
2023-11-11T22:41:07.192Z,97714.00
2023-11-11T22:43:34.490Z,97717.00
2023-11-11T22:46:03.338Z,97712.00
2023-11-11T22:48:30.357Z,97710.00
2023-11-11T22:50:57.042Z,97713.00
2023-11-11T22:53:23.655Z,97712.00
2023-11-11T22:55:50.468Z,97695.00
2023-11-11T22:58:19.421Z,97704.00
2023-11-11T23:00:46.957Z,97701.00
2023-11-11T23:03:14.509Z,97695.00
2023-11-11T23:05:43.724Z,97685.00
2023-11-11T23:08:14.794Z,97694.00
2023-11-11T23:10:44.257Z,97692.00
2023-11-11T23:13:12.131Z,97688.00
2023-11-11T23:15:40.217Z,97689.00
2023-11-11T23:18:11.128Z,97691.00
2023-11-11T23:20:41.295Z,97682.00
2023-11-11T23:23:10.223Z,97680.00
2023-11-11T23:25:38.067Z,97672.00
2023-11-11T23:28:05.637Z,97669.00
2023-11-11T23:30:33.296Z,97660.00
2023-11-11T23:33:00.693Z,97668.00
2023-11-11T23:35:28.151Z,97667.00
2023-11-11T23:37:58.093Z,97663.00
2023-11-11T23:40:24.820Z,97669.00
2023-11-11T23:42:51.367Z,97664.00
2023-11-11T23:45:18.935Z,97672.00
2023-11-11T23:47:45.709Z,97672.00
2023-11-11T23:50:13.284Z,97662.00
2023-11-11T23:52:40.062Z,97662.00
2023-11-11T23:55:08.866Z,97670.00
2023-11-11T23:57:37.831Z,97674.00
